createdAt,value
2022-08-04T00:01:18.462Z,91
2022-08-04T00:03:20.097Z,91
2022-08-04T00:07:23.533Z,91
2022-08-04T00:11:26.373Z,91
2022-08-04T00:13:27.357Z,91
2022-08-04T00:17:30.318Z,91
2022-08-04T00:19:31.970Z,91
2022-08-04T00:21:33.084Z,91
2022-08-04T00:24:10.288Z,91
2022-08-04T00:29:37.934Z,91
2022-08-04T00:31:54.445Z,91
2022-08-04T00:33:41.165Z,91
2022-08-04T00:35:42.947Z,91
2022-08-04T00:39:46.438Z,91
2022-08-04T00:43:48.565Z,91
2022-08-04T00:46:15.107Z,91
2022-08-04T00:49:53.219Z,91
2022-08-04T00:52:31.155Z,91
2022-08-04T00:53:56.132Z,91
2022-08-04T00:55:57.666Z,91
2022-08-04T00:57:58.730Z,91
2022-08-04T01:00:00.023Z,91
2022-08-04T01:02:01.578Z,91
2022-08-04T01:06:04.036Z,91
2022-08-04T01:08:05.719Z,91
2022-08-04T01:10:06.977Z,91
2022-08-04T01:12:08.418Z,91
2022-08-04T01:16:10.384Z,91
2022-08-04T01:18:11.496Z,91
2022-08-04T01:22:14.881Z,91
2022-08-04T01:24:16.466Z,91
2022-08-04T01:26:40.330Z,91
2022-08-04T01:28:19.117Z,91
2022-08-04T01:32:25.275Z,91
2022-08-04T01:34:22.853Z,91
2022-08-04T01:38:25.696Z,91
2022-08-04T01:42:31.782Z,91
2022-08-04T01:44:29.070Z,91
2022-08-04T01:46:30.569Z,91
2022-08-04T01:48:31.859Z,91
2022-08-04T01:54:36.271Z,91
2022-08-04T01:56:37.840Z,91
2022-08-04T01:58:39.013Z,91
2022-08-04T02:00:40.029Z,91
2022-08-04T02:02:41.544Z,91
2022-08-04T02:04:42.472Z,91
2022-08-04T02:06:44.025Z,91
2022-08-04T02:10:47.080Z,91
2022-08-04T02:14:50.228Z,91
2022-08-04T02:16:52.319Z,91
2022-08-04T02:20:55.034Z,91
2022-08-04T02:24:57.709Z,91
2022-08-04T02:26:58.742Z,91
2022-08-04T02:31:01.339Z,91
2022-08-04T02:35:04.054Z,91
2022-08-04T02:37:05.184Z,91
2022-08-04T02:41:07.377Z,91
2022-08-04T02:43:09.224Z,91
2022-08-04T02:45:10.879Z,91
2022-08-04T02:47:11.928Z,91
2022-08-04T02:49:13.511Z,91
2022-08-04T02:51:15.146Z,91
2022-08-04T02:53:16.885Z,91
2022-08-04T02:55:18.142Z,91
2022-08-04T02:57:20.131Z,91
2022-08-04T02:59:20.918Z,91
2022-08-04T03:03:24.059Z,91
2022-08-04T03:05:25.519Z,91
2022-08-04T03:06:10.609Z,91
2022-08-04T03:08:10.819Z,91
2022-08-04T03:10:11.705Z,91
2022-08-04T03:12:13.158Z,91
2022-08-04T03:14:14.560Z,91
2022-08-04T03:16:15.625Z,91
2022-08-04T03:18:17.386Z,91
2022-08-04T03:20:18.533Z,91
2022-08-04T03:22:19.917Z,91
2022-08-04T03:24:21.419Z,91
2022-08-04T03:26:22.623Z,91
2022-08-04T03:28:23.575Z,91
2022-08-04T03:30:24.796Z,91
2022-08-04T03:32:26.032Z,91
2022-08-04T03:34:27.697Z,91
2022-08-04T03:36:31.713Z,91
2022-08-04T03:40:31.879Z,91
2022-08-04T03:42:41.009Z,91
2022-08-04T03:44:34.889Z,91
2022-08-04T03:46:35.926Z,91
2022-08-04T03:50:41.384Z,91
2022-08-04T03:52:40.281Z,91
2022-08-04T03:56:42.340Z,91
2022-08-04T04:00:44.381Z,91
2022-08-04T04:02:45.832Z,91
2022-08-04T04:06:52.934Z,91
2022-08-04T04:10:51.518Z,91
2022-08-04T04:12:53.180Z,91
2022-08-04T04:16:55.158Z,91
2022-08-04T04:18:56.543Z,91
2022-08-04T04:20:58.103Z,91
2022-08-04T04:22:59.004Z,91
2022-08-04T04:27:01.236Z,91
2022-08-04T04:29:03.467Z,91
2022-08-04T04:31:03.222Z,91
2022-08-04T04:33:04.891Z,91
2022-08-04T04:35:06.759Z,91
2022-08-04T04:37:07.801Z,91
2022-08-04T04:39:09.477Z,91
2022-08-04T04:41:11.290Z,91
2022-08-04T04:43:13.038Z,91
2022-08-04T04:45:13.962Z,91
2022-08-04T04:49:15.804Z,91
2022-08-04T04:51:17.042Z,91
2022-08-04T04:53:18.293Z,91
2022-08-04T04:55:19.400Z,91
2022-08-04T04:57:21.226Z,91
2022-08-04T04:59:22.177Z,91
2022-08-04T05:01:23.673Z,91
2022-08-04T05:05:26.702Z,91
2022-08-04T05:07:28.047Z,91
2022-08-04T05:09:29.559Z,91
2022-08-04T05:11:31.279Z,91
2022-08-04T05:14:33.427Z,91
2022-08-04T05:15:33.450Z,91
2022-08-04T05:17:34.701Z,90
2022-08-04T05:21:37.413Z,90
2022-08-04T05:23:38.892Z,90
2022-08-04T05:25:40.184Z,90
2022-08-04T05:27:41.670Z,90
2022-08-04T05:31:44.805Z,90
2022-08-04T05:33:45.837Z,90
2022-08-04T05:35:55.867Z,90
2022-08-04T05:38:01.086Z,90
2022-08-04T05:39:50.871Z,90
2022-08-04T05:41:55.502Z,90
2022-08-04T05:45:54.598Z,90
2022-08-04T05:51:58.573Z,108
2022-08-04T05:54:00.328Z,108
2022-08-04T05:56:01.626Z,108
2022-08-04T05:58:03.297Z,108
2022-08-04T06:00:19.689Z,108
2022-08-04T06:04:09.573Z,108
2022-08-04T06:06:09.344Z,108
2022-08-04T06:08:12.879Z,108
2022-08-04T06:10:12.448Z,108
2022-08-04T06:14:15.462Z,108
2022-08-04T06:16:18.018Z,108
2022-08-04T06:20:22.361Z,107
2022-08-04T06:24:22.103Z,107
2022-08-04T06:26:23.519Z,107
2022-08-04T06:30:25.642Z,107
2022-08-04T06:34:28.370Z,107
2022-08-04T06:36:29.640Z,107
2022-08-04T06:38:30.589Z,108
2022-08-04T06:40:33.132Z,109
2022-08-04T06:42:32.838Z,109
2022-08-04T06:44:33.921Z,109
2022-08-04T06:46:34.941Z,109
2022-08-04T06:48:36.611Z,109
2022-08-04T06:51:24.110Z,109
2022-08-04T06:52:38.878Z,109
2022-08-04T06:54:40.296Z,109
2022-08-04T06:56:41.107Z,109
2022-08-04T06:58:42.631Z,109
2022-08-04T07:02:45.416Z,106
2022-08-04T07:04:46.730Z,106
2022-08-04T07:08:49.214Z,106
2022-08-04T07:12:51.133Z,106
2022-08-04T07:14:52.267Z,107
2022-08-04T07:16:53.235Z,107
2022-08-04T07:18:54.664Z,107
2022-08-04T07:20:55.886Z,107
2022-08-04T07:22:57.119Z,108
2022-08-04T07:24:58.551Z,108
2022-08-04T07:29:01.019Z,109
2022-08-04T07:35:04.950Z,116
2022-08-04T07:37:05.765Z,116
2022-08-04T07:39:07.519Z,127
2022-08-04T07:43:10.175Z,163
2022-08-04T07:45:11.887Z,163
2022-08-04T07:47:12.725Z,246
2022-08-04T07:51:14.903Z,233
2022-08-04T07:53:53.595Z,209
2022-08-04T07:55:16.880Z,209
2022-08-04T07:57:19.333Z,208
2022-08-04T08:01:20.664Z,210
2022-08-04T08:05:23.175Z,187
2022-08-04T08:07:24.676Z,118
2022-08-04T08:12:34.398Z,192
2022-08-04T08:13:31.526Z,225
2022-08-04T08:15:29.068Z,207
2022-08-04T08:17:30.472Z,176
2022-08-04T08:19:31.564Z,206
2022-08-04T08:21:32.823Z,187
2022-08-04T08:23:33.796Z,195
2022-08-04T08:25:34.583Z,216
2022-08-04T08:27:35.460Z,181
2022-08-04T08:29:36.878Z,210
2022-08-04T08:33:39.021Z,186
2022-08-04T08:35:49.321Z,158
2022-08-04T08:39:42.478Z,150
2022-08-04T08:44:00.798Z,166
2022-08-04T08:45:46.130Z,216
2022-08-04T08:47:52.825Z,204
2022-08-04T08:50:01.315Z,194
2022-08-04T08:51:50.595Z,131
2022-08-04T08:53:51.390Z,217
2022-08-04T08:57:59.678Z,184
2022-08-04T08:59:54.889Z,201
2022-08-04T09:01:55.994Z,221
2022-08-04T09:03:57.053Z,199
2022-08-04T09:05:57.791Z,36
2022-08-04T09:07:59.173Z,191
2022-08-04T09:10:00.842Z,167
2022-08-04T09:12:02.518Z,147
2022-08-04T09:16:04.728Z,202
2022-08-04T09:18:06.204Z,179
2022-08-04T09:20:07.227Z,204
2022-08-04T09:22:12.426Z,185
2022-08-04T09:24:34.930Z,174
2022-08-04T09:26:11.682Z,207
2022-08-04T09:28:13.234Z,221
2022-08-04T09:30:14.874Z,197
2022-08-04T09:32:16.392Z,208
2022-08-04T09:34:17.686Z,156
2022-08-04T09:36:25.663Z,141
2022-08-04T09:38:19.541Z,161
2022-08-04T09:42:25.928Z,144
2022-08-04T09:44:43.343Z,161
2022-08-04T09:46:25.667Z,218
2022-08-04T09:50:28.002Z,193
2022-08-04T09:52:29.682Z,160
2022-08-04T09:53:13.430Z,167
2022-08-04T09:55:15.075Z,108
2022-08-04T09:57:15.718Z,167
2022-08-04T09:59:16.643Z,153
2022-08-04T10:01:22.605Z,108
2022-08-04T10:03:20.424Z,119
2022-08-04T10:05:21.040Z,196
2022-08-04T10:09:23.248Z,156
2022-08-04T10:11:23.961Z,186
2022-08-04T10:15:26.693Z,218
2022-08-04T10:19:29.321Z,184
2022-08-04T10:21:30.409Z,183
2022-08-04T10:23:31.548Z,180
2022-08-04T10:25:37.821Z,178
2022-08-04T10:29:35.041Z,181
2022-08-04T10:31:36.413Z,108
2022-08-04T10:33:37.120Z,133
2022-08-04T10:35:38.802Z,151
2022-08-04T10:39:44.184Z,201
2022-08-04T10:41:43.670Z,182
2022-08-04T10:43:45.110Z,183
2022-08-04T10:45:45.988Z,154
2022-08-04T10:47:49.006Z,134
2022-08-04T10:51:56.937Z,182
2022-08-04T10:53:50.705Z,82
2022-08-04T10:56:05.873Z,117
2022-08-04T10:57:52.896Z,90
2022-08-04T11:02:02.143Z,145
2022-08-04T11:03:56.577Z,199
2022-08-04T11:07:59.297Z,190
2022-08-04T11:12:02.341Z,164
2022-08-04T11:14:03.035Z,39
2022-08-04T11:18:06.682Z,243
2022-08-04T11:20:33.338Z,183
2022-08-04T11:24:09.516Z,223
2022-08-04T11:26:10.620Z,219
2022-08-04T11:28:11.383Z,178
2022-08-04T11:30:13.374Z,206
2022-08-04T11:32:14.037Z,209
2022-08-04T11:36:16.210Z,226
2022-08-04T11:38:17.784Z,204
2022-08-04T11:40:18.765Z,196
2022-08-04T11:42:19.921Z,192
2022-08-04T11:44:20.925Z,223
2022-08-04T11:46:21.648Z,222
2022-08-04T11:50:23.913Z,227
2022-08-04T11:52:25.514Z,29
2022-08-04T11:54:26.614Z,263
2022-08-04T11:56:36.277Z,81
2022-08-04T12:00:30.131Z,81
2022-08-04T12:02:31.414Z,158
2022-08-04T12:04:32.960Z,161
2022-08-04T12:06:34.364Z,235
2022-08-04T12:08:35.271Z,253
2022-08-04T12:10:38.195Z,232
2022-08-04T12:12:38.293Z,205
2022-08-04T12:16:40.395Z,225
2022-08-04T12:22:43.381Z,266
2022-08-04T12:24:44.889Z,252
2022-08-04T12:26:46.237Z,207
2022-08-04T12:29:08.912Z,259
2022-08-04T12:30:54.375Z,229
2022-08-04T12:32:53.650Z,294
2022-08-04T12:34:51.334Z,266
2022-08-04T12:36:52.377Z,326
2022-08-04T12:40:54.429Z,336
2022-08-04T12:42:56.315Z,265
2022-08-04T12:44:56.542Z,234
2022-08-04T12:47:27.945Z,187
2022-08-04T12:48:59.040Z,273
2022-08-04T12:53:03.303Z,229
2022-08-04T12:55:03.197Z,247
2022-08-04T12:59:05.135Z,271
2022-08-04T13:02:06.717Z,238
2022-08-04T13:03:09.924Z,201
2022-08-04T13:05:08.899Z,42
2022-08-04T13:07:10.165Z,238
2022-08-04T13:09:17.414Z,77
2022-08-04T13:11:12.252Z,262
2022-08-04T13:13:13.541Z,272
2022-08-04T13:15:14.987Z,257
2022-08-04T13:17:15.518Z,257
2022-08-04T13:21:19.736Z,338
2022-08-04T13:26:41.926Z,239
2022-08-04T13:27:21.521Z,237
2022-08-04T13:29:22.524Z,249
2022-08-04T13:31:23.636Z,200
2022-08-04T13:33:24.999Z,236
2022-08-04T13:35:30.671Z,247
2022-08-04T13:37:27.905Z,254
2022-08-04T13:39:29.176Z,227
2022-08-04T13:41:31.192Z,218
2022-08-04T13:43:48.275Z,218
2022-08-04T13:45:34.878Z,201
2022-08-04T13:47:33.813Z,205
2022-08-04T13:51:56.869Z,206
2022-08-04T13:53:38.305Z,264
2022-08-04T13:55:39.177Z,264
2022-08-04T13:57:40.660Z,269
2022-08-04T14:03:53.793Z,247
2022-08-04T14:05:59.803Z,219
2022-08-04T14:07:46.652Z,232
2022-08-04T14:12:07.322Z,275
2022-08-04T14:13:50.072Z,278
2022-08-04T14:19:53.572Z,198
2022-08-04T14:23:55.994Z,232
2022-08-04T14:25:56.789Z,245
2022-08-04T14:29:59.258Z,243
2022-08-04T14:36:03.980Z,331
2022-08-04T14:40:09.689Z,225
2022-08-04T14:42:06.763Z,226
2022-08-04T14:44:07.627Z,201
2022-08-04T14:46:08.818Z,257
2022-08-04T14:48:10.422Z,185
2022-08-04T14:50:12.065Z,284
2022-08-04T14:52:13.122Z,138
2022-08-04T14:54:18.001Z,198
2022-08-04T15:00:19.092Z,268
2022-08-04T15:02:19.381Z,221
2022-08-04T15:04:20.052Z,258
2022-08-04T15:06:22.055Z,229
2022-08-04T15:08:22.949Z,194
2022-08-04T15:12:24.821Z,236
2022-08-04T15:14:36.527Z,236
2022-08-04T15:16:26.195Z,254
2022-08-04T15:18:27.569Z,254
2022-08-04T15:20:28.698Z,27
2022-08-04T15:22:30.162Z,27
2022-08-04T15:24:31.330Z,252
2022-08-04T15:28:33.476Z,267
2022-08-04T15:32:36.768Z,237
2022-08-04T15:34:37.792Z,160
2022-08-04T15:38:39.691Z,203
2022-08-04T15:40:40.806Z,203
2022-08-04T15:42:42.475Z,201
2022-08-04T15:44:43.959Z,198
2022-08-04T15:46:45.243Z,198
2022-08-04T15:48:46.817Z,169
2022-08-04T15:50:48.223Z,180
2022-08-04T15:53:00.815Z,224
2022-08-04T15:57:01.720Z,221
2022-08-04T15:58:53.028Z,202
2022-08-04T16:00:54.131Z,207
2022-08-04T16:02:55.281Z,252
2022-08-04T16:04:56.758Z,264
2022-08-04T16:06:57.469Z,233
2022-08-04T16:11:00.097Z,277
2022-08-04T16:13:01.329Z,288
2022-08-04T16:15:01.835Z,203
2022-08-04T16:17:03.200Z,202
2022-08-04T16:21:05.409Z,248
2022-08-04T16:23:06.403Z,141
2022-08-04T16:25:07.145Z,227
2022-08-04T16:27:07.875Z,227
2022-08-04T16:31:10.145Z,268
2022-08-04T16:33:11.044Z,268
2022-08-04T16:35:12.170Z,268
2022-08-04T16:37:13.029Z,268
2022-08-04T16:37:56.641Z,220
2022-08-04T16:39:58.310Z,220
2022-08-04T16:41:59.876Z,220
2022-08-04T16:44:01.306Z,220
2022-08-04T16:46:02.232Z,223
2022-08-04T16:48:03.220Z,223
2022-08-04T16:52:05.019Z,269
2022-08-04T16:54:06.692Z,269
2022-08-04T16:56:08.281Z,269
2022-08-04T16:58:09.545Z,181
2022-08-04T17:00:11.181Z,184
2022-08-04T17:04:14.345Z,198
2022-08-04T17:06:15.962Z,198
2022-08-04T17:08:29.400Z,200
2022-08-04T17:10:19.107Z,224
2022-08-04T17:14:20.951Z,260
2022-08-04T17:16:22.153Z,260
2022-08-04T17:18:23.241Z,222
2022-08-04T17:20:24.138Z,222
2022-08-04T17:22:25.123Z,221
2022-08-04T17:24:26.312Z,228
2022-08-04T17:26:39.577Z,228
2022-08-04T17:28:34.666Z,228
2022-08-04T17:30:29.687Z,228
2022-08-04T17:36:33.598Z,228
2022-08-04T17:38:34.663Z,228
2022-08-04T17:40:35.934Z,228
2022-08-04T17:42:37.570Z,228
2022-08-04T17:46:40.155Z,228
2022-08-04T17:48:41.586Z,265
2022-08-04T17:50:43.637Z,265
2022-08-04T17:56:51.971Z,265
2022-08-04T18:00:51.348Z,265
2022-08-04T18:02:51.466Z,265
2022-08-04T18:06:54.066Z,265
2022-08-04T18:08:57.827Z,265
2022-08-04T18:10:56.904Z,265
2022-08-04T18:12:57.549Z,265
2022-08-04T18:17:00.849Z,265
2022-08-04T18:19:02.499Z,265
2022-08-04T18:23:04.380Z,265
2022-08-04T18:25:05.530Z,265
2022-08-04T18:27:06.848Z,265
2022-08-04T18:29:08.379Z,265
2022-08-04T18:33:38.210Z,265
2022-08-04T18:35:16.280Z,265
2022-08-04T18:38:02.999Z,265
2022-08-04T18:39:15.030Z,265
2022-08-04T18:41:14.786Z,265
2022-08-04T18:45:17.444Z,265
2022-08-04T18:47:19.075Z,265
2022-08-04T18:51:23.419Z,265
2022-08-04T18:55:55.211Z,265
2022-08-04T18:57:58.819Z,265
2022-08-04T18:59:25.816Z,265
2022-08-04T19:01:29.820Z,265
2022-08-04T19:05:37.897Z,265
2022-08-04T19:07:30.889Z,265
2022-08-04T19:09:45.087Z,265
2022-08-04T19:11:38.826Z,265
2022-08-04T19:15:36.372Z,265
2022-08-04T19:17:54.380Z,265
2022-08-04T19:19:40.290Z,265
2022-08-04T19:24:30.730Z,265
2022-08-04T19:27:44.157Z,265
2022-08-04T19:29:45.858Z,265
2022-08-04T19:31:46.678Z,265
2022-08-04T19:33:55.682Z,265
2022-08-04T19:37:56.472Z,265
2022-08-04T19:39:51.852Z,265
2022-08-04T19:43:54.439Z,265
2022-08-04T19:48:11.707Z,265
2022-08-04T19:50:03.479Z,265
2022-08-04T19:54:02.618Z,265
2022-08-04T19:58:02.692Z,265
2022-08-04T20:00:03.515Z,265
2022-08-04T20:02:04.574Z,265
2022-08-04T20:04:08.668Z,265
2022-08-04T20:06:07.230Z,265
2022-08-04T20:08:08.431Z,265
2022-08-04T20:10:09.269Z,265
2022-08-04T20:12:10.694Z,265
2022-08-04T20:14:12.031Z,265
2022-08-04T20:16:20.282Z,265
2022-08-04T20:18:35.353Z,265
2022-08-04T20:20:15.751Z,265
2022-08-04T20:22:51.185Z,265
2022-08-04T20:26:20.018Z,265
2022-08-04T20:28:25.875Z,265
2022-08-04T20:30:21.858Z,265
2022-08-04T20:36:26.056Z,265
2022-08-04T20:38:32.960Z,265
2022-08-04T20:40:28.363Z,265
2022-08-04T20:42:33.880Z,265
2022-08-04T20:44:31.601Z,265
2022-08-04T20:46:33.360Z,351
2022-08-04T20:48:34.606Z,351
2022-08-04T20:50:35.700Z,351
2022-08-04T20:52:37.077Z,351
2022-08-04T20:58:41.486Z,351
2022-08-04T21:00:43.287Z,351
2022-08-04T21:02:44.599Z,351
2022-08-04T21:04:46.442Z,351
2022-08-04T21:08:57.027Z,351
2022-08-04T21:10:50.180Z,351
2022-08-04T21:12:51.371Z,351
2022-08-04T21:14:52.454Z,351
2022-08-04T21:18:54.945Z,351
2022-08-04T21:20:56.508Z,351
2022-08-04T21:24:58.903Z,351
2022-08-04T21:29:00.730Z,351
2022-08-04T21:31:02.413Z,351
2022-08-04T21:35:10.527Z,351
2022-08-04T21:39:10.963Z,351
2022-08-04T21:41:08.610Z,351
2022-08-04T21:45:11.487Z,351
2022-08-04T21:47:14.071Z,351
2022-08-04T21:49:14.071Z,351
2022-08-04T21:51:21.929Z,351
2022-08-04T21:53:16.674Z,351
2022-08-04T21:55:18.976Z,351
2022-08-04T21:57:19.929Z,351
2022-08-04T21:59:23.428Z,351
2022-08-04T22:01:25.821Z,351
2022-08-04T22:03:52.148Z,351
2022-08-04T22:05:24.885Z,351
2022-08-04T22:09:28.907Z,351
2022-08-04T22:16:03.218Z,351
2022-08-04T22:17:35.437Z,351
2022-08-04T22:19:39.579Z,351
2022-08-04T22:21:39.000Z,351
2022-08-04T22:23:41.857Z,351
2022-08-04T22:25:37.967Z,351
2022-08-04T22:27:38.892Z,351
2022-08-04T22:29:42.906Z,351
2022-08-04T22:31:53.413Z,351
2022-08-04T22:33:54.137Z,351
2022-08-04T22:35:49.131Z,351
2022-08-04T22:37:48.740Z,351
2022-08-04T22:39:56.459Z,351
2022-08-04T22:42:03.418Z,351
2022-08-04T22:43:54.700Z,351
2022-08-04T22:45:51.387Z,351
2022-08-04T22:50:01.757Z,351
2022-08-04T22:51:54.810Z,351
2022-08-04T22:56:07.780Z,351
2022-08-04T23:00:01.031Z,351
2022-08-04T23:02:01.853Z,351
2022-08-04T23:06:04.017Z,351
2022-08-04T23:10:06.750Z,351
2022-08-04T23:12:22.456Z,351
2022-08-04T23:14:09.420Z,351
2022-08-04T23:16:10.830Z,351
2022-08-04T23:20:23.458Z,351
2022-08-04T23:22:15.893Z,351
2022-08-04T23:25:00.734Z,351
2022-08-04T23:27:02.016Z,351
2022-08-04T23:33:06.514Z,351
2022-08-04T23:35:07.629Z,351
2022-08-04T23:37:10.048Z,351
2022-08-04T23:39:11.074Z,351
2022-08-04T23:43:17.629Z,351
2022-08-04T23:48:16.350Z,351
2022-08-04T23:49:19.377Z,351
2022-08-04T23:53:22.617Z,351
2022-08-04T23:57:24.878Z,351
2022-08-04T23:59:36.037Z,351
